createdAt,value
2019-02-09T00:00:37.161Z,6.10
2019-02-09T00:03:08.387Z,7.10
2019-02-09T00:33:01.709Z,6.10
2019-02-09T00:38:00.156Z,6.20
2019-02-09T00:45:31.872Z,6.10
2019-02-09T01:00:33.306Z,6.30
2019-02-09T01:25:31.439Z,6.80
2019-02-09T01:30:30.405Z,6.50
2019-02-09T01:40:29.012Z,7.40
2019-02-09T01:48:01.258Z,6.40
2019-02-09T01:58:00.780Z,6.70
2019-02-09T02:00:34.450Z,6.40
2019-02-09T02:10:35.656Z,6.60
2019-02-09T02:20:36.379Z,7.20
2019-02-09T02:28:04.293Z,6.40
2019-02-09T02:35:35.008Z,6.40
2019-02-09T02:43:02.757Z,6.30
2019-02-09T02:45:32.106Z,6.40
2019-02-09T02:48:01.483Z,6.00
2019-02-09T02:50:30.881Z,6.50
2019-02-09T02:53:00.375Z,6.40
2019-02-09T02:58:02.616Z,6.60
2019-02-09T03:03:03.099Z,6.40
2019-02-09T03:20:31.307Z,6.40
2019-02-09T03:28:01.484Z,6.50
2019-02-09T03:33:00.059Z,6.50
2019-02-09T03:35:29.581Z,6.40
2019-02-09T04:00:32.302Z,6.60
2019-02-09T04:20:27.281Z,7.30
2019-02-09T04:37:55.808Z,6.70
2019-02-09T04:40:29.215Z,6.60
2019-02-09T04:45:27.767Z,6.70
2019-02-09T04:52:55.534Z,6.60
2019-02-09T04:57:55.943Z,6.80
2019-02-09T05:00:30.934Z,6.90
2019-02-09T05:03:00.753Z,7.10
2019-02-09T05:07:59.915Z,6.90
2019-02-09T05:15:27.555Z,6.90
2019-02-09T05:27:54.072Z,7.20
2019-02-09T05:45:33.644Z,7.30
2019-02-09T05:55:30.363Z,7.30
2019-02-09T05:57:59.698Z,7.00
2019-02-09T06:00:34.082Z,7.10
2019-02-09T06:10:30.878Z,7.20
2019-02-09T06:15:30.339Z,7.20
2019-02-09T06:17:59.715Z,7.20
2019-02-09T06:45:26.673Z,7.00
2019-02-09T06:55:45.722Z,7.50
2019-02-09T07:05:42.606Z,7.30
2019-02-09T07:08:12.020Z,7.30
2019-02-09T07:10:41.375Z,7.20
2019-02-09T07:13:11.044Z,7.40
2019-02-09T07:30:36.988Z,7.10
2019-02-09T07:35:36.835Z,7.20
2019-02-09T07:53:03.890Z,7.80
2019-02-09T07:55:33.245Z,7.70
2019-02-09T08:00:35.666Z,7.70
2019-02-09T08:05:35.093Z,7.60
2019-02-09T08:10:40.185Z,7.60
2019-02-09T08:20:38.681Z,7.60
2019-02-09T08:28:12.858Z,7.50
2019-02-09T08:30:45.391Z,7.80
2019-02-09T08:33:15.177Z,8.00
2019-02-09T08:35:44.640Z,7.80
2019-02-09T08:38:16.195Z,8.00
2019-02-09T08:58:19.580Z,8.30
2019-02-09T09:05:47.094Z,8.40
2019-02-09T09:10:45.511Z,8.30
2019-02-09T09:13:14.843Z,8.50
2019-02-09T09:18:19.123Z,8.60
2019-02-09T09:23:23.738Z,8.90
2019-02-09T09:28:23.727Z,9.30
2019-02-09T09:30:53.122Z,9.30
2019-02-09T09:35:55.596Z,9.50
2019-02-09T09:40:54.044Z,9.60
2019-02-09T09:53:20.685Z,9.60
2019-02-09T09:55:50.031Z,9.60
2019-02-09T10:03:17.963Z,9.90
2019-02-09T10:05:47.449Z,9.90
2019-02-09T10:08:16.910Z,10.20
2019-02-09T10:10:46.270Z,10.00
2019-02-09T10:15:45.148Z,10.20
2019-02-09T10:23:13.201Z,10.20
2019-02-09T10:25:42.740Z,10.40
2019-02-09T10:30:41.173Z,11.10
2019-02-09T10:33:10.551Z,10.60
2019-02-09T10:35:39.905Z,10.80
2019-02-09T10:38:09.293Z,10.70
2019-02-09T10:40:39.022Z,10.50
2019-02-09T10:58:08.258Z,10.70
2019-02-09T11:00:42.332Z,10.70
2019-02-09T11:03:11.811Z,10.60
2019-02-09T11:05:41.600Z,10.70
2019-02-09T11:10:40.407Z,10.70
2019-02-09T11:20:37.583Z,10.40
2019-02-09T11:25:36.084Z,10.80
2019-02-09T11:38:02.269Z,10.90
2019-02-09T11:43:02.944Z,11.10
2019-02-09T11:58:01.481Z,11.00
2019-02-09T12:03:14.602Z,10.90
2019-02-09T12:05:37.718Z,10.70
2019-02-09T12:08:08.683Z,11.10
2019-02-09T12:18:15.111Z,11.30
2019-02-09T12:33:12.815Z,11.30
2019-02-09T12:43:12.043Z,11.10
2019-02-09T12:45:42.491Z,11.20
2019-02-09T12:48:12.633Z,11.10
2019-02-09T12:50:42.018Z,11.20
2019-02-09T13:13:14.250Z,11.00
2019-02-09T13:23:11.545Z,11.00
2019-02-09T13:48:11.093Z,11.10
2019-02-09T13:55:38.958Z,11.10
2019-02-09T14:08:06.625Z,10.70
2019-02-09T14:10:36.214Z,11.10
2019-02-09T14:13:05.720Z,11.10
2019-02-09T14:20:40.183Z,11.10
2019-02-09T14:28:08.227Z,11.00
2019-02-09T14:33:11.369Z,11.20
2019-02-09T14:40:40.781Z,10.90
2019-02-09T14:43:10.954Z,10.60
2019-02-09T14:45:44.864Z,10.70
2019-02-09T14:53:13.040Z,10.60
2019-02-09T14:55:42.430Z,10.30
2019-02-09T14:58:11.746Z,11.30
2019-02-09T15:00:51.107Z,10.80
2019-02-09T15:05:54.602Z,10.60
2019-02-09T15:08:24.264Z,10.80
2019-02-09T15:10:53.646Z,10.50
2019-02-09T15:13:22.989Z,10.60
2019-02-09T15:18:27.360Z,10.50
2019-02-09T15:23:29.368Z,11.00
2019-02-09T15:28:27.817Z,10.40
2019-02-09T15:30:57.167Z,10.60
2019-02-09T15:33:26.527Z,10.10
2019-02-09T15:35:55.890Z,10.40
2019-02-09T15:38:25.257Z,10.30
2019-02-09T15:50:51.812Z,10.00
2019-02-09T16:00:48.532Z,9.90
2019-02-09T16:08:16.170Z,10.00
2019-02-09T16:28:09.378Z,9.50
2019-02-09T16:30:38.720Z,9.70
2019-02-09T16:35:46.077Z,9.40
2019-02-09T16:38:15.429Z,9.40
2019-02-09T16:41:00.531Z,9.50
2019-02-09T16:46:02.849Z,9.40
2019-02-09T16:48:32.506Z,9.50
2019-02-09T16:56:00.459Z,9.10
2019-02-09T16:58:29.811Z,9.40
2019-02-09T17:00:59.531Z,9.20
2019-02-09T17:05:57.922Z,9.20
2019-02-09T17:10:56.338Z,9.10
2019-02-09T17:23:22.438Z,9.30
2019-02-09T17:28:20.955Z,9.30
2019-02-09T17:30:50.355Z,9.40
2019-02-09T17:35:48.922Z,8.80
2019-02-09T17:40:48.902Z,9.20
2019-02-09T17:43:18.347Z,8.90
2019-02-09T17:48:20.556Z,8.70
2019-02-09T17:55:48.394Z,8.30
2019-02-09T17:58:17.805Z,8.50
2019-02-09T18:00:48.863Z,8.40
2019-02-09T18:05:47.588Z,8.20
2019-02-09T18:10:46.244Z,8.20
2019-02-09T18:20:43.296Z,8.10
2019-02-09T18:25:41.901Z,8.00
2019-02-09T18:28:11.327Z,8.40
2019-02-09T18:33:10.112Z,8.60
2019-02-09T18:40:37.921Z,8.50
2019-02-09T18:45:36.532Z,8.10
2019-02-09T18:53:05.193Z,8.30
2019-02-09T18:58:03.723Z,8.30
2019-02-09T19:03:07.952Z,8.00
2019-02-09T19:05:37.813Z,8.00
2019-02-09T19:08:08.524Z,8.00
2019-02-09T19:15:36.623Z,7.80
2019-02-09T19:30:49.416Z,7.90
2019-02-09T19:33:18.777Z,8.50
2019-02-09T19:48:13.971Z,8.00
2019-02-09T19:50:43.396Z,8.10
2019-02-09T19:55:42.150Z,8.20
2019-02-09T19:58:11.806Z,7.80
2019-02-09T20:00:48.240Z,7.90
2019-02-09T20:03:17.663Z,7.60
2019-02-09T20:08:16.347Z,8.10
2019-02-09T20:10:45.702Z,7.60
2019-02-09T20:18:14.021Z,7.90
2019-02-09T20:23:14.216Z,7.90
2019-02-09T20:28:12.861Z,8.10
2019-02-09T20:30:43.696Z,8.00
2019-02-09T20:33:13.152Z,8.00
2019-02-09T20:40:50.499Z,7.90
2019-02-09T20:45:51.343Z,7.70
2019-02-09T20:58:17.781Z,7.40
2019-02-09T21:00:47.142Z,7.30
2019-02-09T21:03:16.551Z,7.30
2019-02-09T21:05:45.916Z,7.50
2019-02-09T21:13:15.044Z,7.20
2019-02-09T21:18:13.691Z,7.00
2019-02-09T21:23:12.195Z,7.00
2019-02-09T21:25:47.852Z,7.10
2019-02-09T21:33:15.764Z,6.90
2019-02-09T21:40:43.488Z,7.30
2019-02-09T21:43:12.881Z,7.30
2019-02-09T21:50:42.265Z,7.20
2019-02-09T21:55:40.834Z,7.20
2019-02-09T21:58:10.559Z,7.30
2019-02-09T22:00:45.117Z,7.20
2019-02-09T22:03:15.031Z,7.20
2019-02-09T22:05:51.705Z,6.80
2019-02-09T22:08:19.858Z,7.00
2019-02-09T22:13:18.749Z,7.20
2019-02-09T22:18:17.306Z,7.20
2019-02-09T22:20:52.548Z,6.90
2019-02-09T22:30:45.425Z,6.90
2019-02-09T22:33:24.045Z,6.80
2019-02-09T22:38:15.230Z,6.90
2019-02-09T22:45:43.010Z,7.10
2019-02-09T23:00:57.935Z,6.90
2019-02-09T23:03:32.647Z,6.90
2019-02-09T23:06:36.933Z,7.10
2019-02-09T23:24:04.729Z,7.40
2019-02-09T23:26:35.250Z,6.90
2019-02-09T23:29:04.699Z,6.70
2019-02-09T23:31:34.095Z,6.80
2019-02-09T23:44:00.138Z,6.70
2019-02-09T23:46:29.577Z,6.50
2019-02-09T23:48:59.006Z,6.70
